KPBG/PBG METAR and TAF weather

Enter ICAO airport designator
Station Type Date Time Source
KPBG METAR 2019/12/09 05:53 UTC NOAA

KPBG 090553Z AUTO 17009KT 10SM BKN045 OVC065 02/M06 A3009 RMK AO2 SLP193 T00171061 10017 21006 58002


Station Type Date Time Source
KPBG Decoded METAR 2019/12/09 05:53 UTC NOAA

PLATTSBURGH INTERNATIONAL AIRPORT, NY, United States (KPBG) 44-39N 073-28W
Dec 09, 2019 - 12:53 AM EST / 2019.12.09 0553 UTC
Wind: from the S (170 degrees) at 10 MPH (9 KT):0
Visibility: 10 mile(s):0
Sky conditions: overcast
Temperature: 35.1 F (1.7 C)
Dew Point: 21.0 F (-6.1 C)
Relative Humidity: 56%
Pressure (altimeter): 30.09 in. Hg (1018 hPa)
Pressure tendency: 0.01 inches (0.2 hPa) lower than three hours ago
ob: KPBG 090553Z AUTO 17009KT 10SM BKN045 OVC065 02/M06 A3009 RMK AO2 SLP193 T00171061 10017 21006 58002
cycle: 6

Station Type Date Time Source
KPBG TAF 2019/12/09 06:24 UTC NOAA

TAF KPBG 090520Z 0906/1006 18010G18KT P6SM OVC070 WS020/22040KT
FM090900 17011KT P6SM VCSH OVC040 WS020/23035KT
FM091600 17011KT P6SM -SHRA OVC040
FM092000 17010KT P6SM -SHRA OVC025
FM092200 17011KT P6SM -SHRA OVC014 WS020/19040KT
FM100200 18011KT P6SM VCSH OVC020 WS020/21045KT

Example: see airport list